^^
Meteo Knjazevac Station Historical Data
Daily Summary for June 20, 2022 Units:  English    Metric   Both
Daily Weekly Monthly Yearly Custom
  High: Low: Average:
Temperature: 50.9 °F 45.7 °F 47.6 °F
Dew Point: 50.6 °F 45.4 °F 47.3 °F
Humidity: 99% 99% 99%
Wind Speed: 12.1mph 0mph 4.1mph
Wind Gust: 14mph - -
Wind- - SE
Pressure: 29.88 in 29.74 in -
Precipitation: 1.59 in    
Historical Graphs
 
 
Tabular Data for June 20, 2022
Time Temperature Dew Point Pressure Wind Wind Speed Wind Gust Humidity Rainfall Rate (Hourly) solar Conditions
00:04 46.7 °F 46.4 °F 29.83 in NE 2.1 mph 3 mph 99% 0.00 in 0 W/m2
00:09 46.7 °F 46.4 °F 29.82 in NNE 1.6 mph 2 mph 99% 0.00 in 0 W/m2
00:14 46.6 °F 46.3 °F 29.82 in North 0.2 mph 2 mph 99% 0.00 in 0 W/m2
00:19 46.6 °F 46.3 °F 29.82 in NW 2.8 mph 2.9 mph 99% 0.00 in 0 W/m2
00:24 46.6 °F 46.3 °F 29.82 in NNE 1.2 mph 4 mph 99% 0.00 in 0 W/m2
00:29 46.6 °F 46.3 °F 29.82 in NE 1.4 mph 2 mph 99% 0.00 in 0 W/m2
00:34 46.6 °F 46.3 °F 29.82 in NNE 1.1 mph 2 mph 99% 0.00 in 0 W/m2
00:39 46.6 °F 46.3 °F 29.82 in NNW 2.3 mph 2 mph 99% 0.00 in 0 W/m2
00:44 46.6 °F 46.3 °F 29.83 in West 3.4 mph 3 mph 99% 0.00 in 0 W/m2
00:49 46.8 °F 46.5 °F 29.83 in West 3.5 mph 4 mph 99% 0.00 in 0 W/m2
00:54 46.8 °F 46.5 °F 29.83 in West 4 mph 4 mph 99% 0.00 in 0 W/m2
00:59 46.6 °F 46.3 °F 29.84 in West 4.7 mph 5 mph 99% 0.01 in 0 W/m2
01:04 46.7 °F 46.4 °F 29.85 in West 5 mph 6 mph 99% 0.03 in 0 W/m2
01:09 46.8 °F 46.5 °F 29.85 in WNW 3.9 mph 6 mph 99% 0.04 in 0 W/m2
01:14 46.8 °F 46.5 °F 29.85 in NNW 5.6 mph 5 mph 99% 0.05 in 0 W/m2
01:19 46.8 °F 46.5 °F 29.84 in North 6.1 mph 7 mph 99% 0.05 in 0 W/m2
01:24 46.8 °F 46.5 °F 29.85 in North 4.5 mph 7 mph 99% 0.06 in 0 W/m2
01:29 46.8 °F 46.5 °F 29.85 in North 2.4 mph 5 mph 99% 0.07 in 0 W/m2
01:34 46.8 °F 46.5 °F 29.85 in NNE 4.7 mph 3.1 mph 99% 0.08 in 0 W/m2
01:39 46.8 °F 46.5 °F 29.84 in NE 3.3 mph 7 mph 99% 0.08 in 0 W/m2
01:44 46.8 °F 46.5 °F 29.85 in ENE 3.5 mph 4 mph 99% 0.09 in 0 W/m2
01:49 46.8 °F 46.5 °F 29.85 in ENE 4.3 mph 6 mph 99% 0.09 in 0 W/m2
01:54 46.8 °F 46.5 °F 29.85 in NNE 2.4 mph 6 mph 99% 0.09 in 0 W/m2
01:59 46.8 °F 46.5 °F 29.86 in NNE 2.5 mph 3 mph 99% 0.09 in 0 W/m2
02:04 46.7 °F 46.4 °F 29.85 in NNE 2 mph 4 mph 99% 0.09 in 0 W/m2
02:09 46.6 °F 46.3 °F 29.85 in North 1.4 mph 3 mph 99% 0.07 in 0 W/m2
02:14 46.6 °F 46.3 °F 29.84 in NNE 2.3 mph 2 mph 99% 0.07 in 0 W/m2
02:19 46.6 °F 46.3 °F 29.84 in NNE 2.5 mph 3 mph 99% 0.06 in 0 W/m2
02:24 46.6 °F 46.3 °F 29.84 in NNE 0.5 mph 3 mph 99% 0.06 in 0 W/m2
02:29 46.5 °F 46.2 °F 29.84 in North 1.9 mph 1.6 mph 99% 0.05 in 0 W/m2
02:34 46.5 °F 46.2 °F 29.84 in NNE 3 mph 3 mph 99% 0.04 in 0 W/m2
02:39 46.4 °F 46.1 °F 29.83 in NE 3.2 mph 4 mph 99% 0.03 in 0 W/m2
02:44 46.4 °F 46.1 °F 29.83 in NE 2.1 mph 3 mph 99% 0.03 in 0 W/m2
02:49 46.4 °F 46.1 °F 29.83 in NNE 2.3 mph 2.9 mph 99% 0.02 in 0 W/m2
02:54 46.4 °F 46.1 °F 29.83 in NNE 3.8 mph 5 mph 99% 0.02 in 0 W/m2
02:59 46.4 °F 46.1 °F 29.84 in NNE 2.6 mph 5 mph 99% 0.01 in 0 W/m2
03:04 46.4 °F 46.1 °F 29.84 in North 4.1 mph 3.4 mph 99% 0.01 in 0 W/m2
03:09 46.4 °F 46.1 °F 29.84 in NNW 3.5 mph 5 mph 99% 0.01 in 0 W/m2
03:14 46.4 °F 46.1 °F 29.84 in NNW 4 mph 4 mph 99% 0.01 in 0 W/m2
03:19 46.4 °F 46.1 °F 29.85 in NNW 2.7 mph 5 mph 99% 0.01 in 0 W/m2
03:24 46.5 °F 46.2 °F 29.85 in North 3.1 mph 3 mph 99% 0.01 in 0 W/m2
03:29 46.6 °F 46.3 °F 29.86 in NE 3.4 mph 4 mph 99% 0.02 in 0 W/m2
03:34 46.5 °F 46.2 °F 29.86 in ENE 4 mph 3 mph 99% 0.02 in 0 W/m2
03:39 46.6 °F 46.3 °F 29.86 in NE 4.1 mph 5 mph 99% 0.02 in 0 W/m2
03:44 46.5 °F 46.2 °F 29.86 in NNE 4.5 mph 6 mph 99% 0.02 in 0 W/m2
03:49 46.4 °F 46.1 °F 29.85 in North 3.7 mph 6 mph 99% 0.02 in 0 W/m2
03:54 46.4 °F 46.1 °F 29.86 in Calm   5 mph 99% 0.02 in 0 W/m2
03:59 46.4 °F 46.1 °F 29.86 in North 0.9 mph 2 mph 99% 0.02 in 0 W/m2
04:04 46.4 °F 46.1 °F 29.86 in NNE 2.2 mph 2 mph 99% 0.02 in 0 W/m2
04:09 46.4 °F 46.1 °F 29.86 in NE 2.4 mph 3 mph 99% 0.02 in 0 W/m2
04:14 46.4 °F 46.1 °F 29.86 in NW 5.6 mph 4 mph 99% 0.02 in 0 W/m2
04:19 46.5 °F 46.2 °F 29.87 in WSW 5.7 mph 7 mph 99% 0.02 in 0 W/m2
04:24 46.6 °F 46.3 °F 29.87 in West 4.6 mph 9 mph 99% 0.04 in 0 W/m2
04:29 46.6 °F 46.3 °F 29.86 in NW 3.1 mph 9 mph 99% 0.06 in 0 W/m2
04:34 46.6 °F 46.3 °F 29.87 in North 3.6 mph 4 mph 99% 0.06 in 0 W/m2
04:39 46.6 °F 46.3 °F 29.86 in North 3.9 mph 5 mph 99% 0.06 in 0 W/m2
04:44 46.6 °F 46.3 °F 29.86 in NNE 5.8 mph 6 mph 99% 0.07 in 0 W/m2
04:49 46.6 °F 46.3 °F 29.88 in NNW 6.2 mph 8 mph 99% 0.10 in 0 W/m2
04:54 46.6 °F 46.3 °F 29.88 in SSW 6 mph 8 mph 99% 0.14 in 0 W/m2
04:59 46.6 °F 46.3 °F 29.87 in ESE 4 mph 6 mph 99% 0.17 in 0 W/m2
05:04 46.5 °F 46.2 °F 29.87 in ENE 3.7 mph 6 mph 99% 0.18 in 0 W/m2
05:09 46.4 °F 46.1 °F 29.87 in ENE 3.2 mph 5 mph 99% 0.20 in 0 W/m2
05:14 46.4 °F 46.1 °F 29.86 in ENE 5.3 mph 5 mph 99% 0.20 in 0 W/m2
05:19 46.4 °F 46.1 °F 29.86 in NNE 5.9 mph 6 mph 99% 0.21 in 0 W/m2
05:24 46.4 °F 46.1 °F 29.87 in North 2.9 mph 7 mph 99% 0.21 in 0 W/m2
05:29 46.4 °F 46.1 °F 29.87 in NNW 1.2 mph 3 mph 99% 0.18 in 0 W/m2
05:34 46.4 °F 46.1 °F 29.87 in NNW 1.7 mph 2 mph 99% 0.19 in 0 W/m2
05:39 46.4 °F 46.1 °F 29.87 in NNE 2.8 mph 2.9 mph 99% 0.20 in 0 W/m2
05:44 46.4 °F 46.1 °F 29.87 in East 4.5 mph 5 mph 99% 0.21 in 0 W/m2
05:49 46.4 °F 46.1 °F 29.86 in ENE 4 mph 6 mph 99% 0.21 in 0 W/m2
05:54 46.4 °F 46.1 °F 29.86 in SE 3.4 mph 6 mph 99% 0.20 in 0 W/m2
05:59 46.4 °F 46.1 °F 29.85 in South 2.8 mph 4 mph 99% 0.16 in 0 W/m2
06:04 46.4 °F 46.1 °F 29.85 in SE 4.5 mph 4 mph 99% 0.14 in 0 W/m2
06:09 46.4 °F 46.1 °F 29.85 in East 6.2 mph 6 mph 99% 0.13 in 0 W/m2
06:14 46.5 °F 46.2 °F 29.84 in East 6.1 mph 7 mph 99% 0.11 in 0 W/m2
06:19 46.5 °F 46.2 °F 29.84 in East 4.4 mph 7 mph 99% 0.11 in 0 W/m2
06:24 46.4 °F 46.1 °F 29.84 in ENE 2.1 mph 6 mph 99% 0.10 in 0 W/m2
06:29 46.4 °F 46.1 °F 29.84 in NE 2 mph 2 mph 99% 0.10 in 1 W/m2
06:34 46.4 °F 46.1 °F 29.84 in North 2.6 mph 2.2 mph 99% 0.08 in 1 W/m2
06:39 46.4 °F 46.1 °F 29.84 in NNW 3.7 mph 4 mph 99% 0.07 in 1 W/m2
06:44 46.4 °F 46.1 °F 29.83 in NNW 4.5 mph 5 mph 99% 0.05 in 2 W/m2
06:49 46.4 °F 46.1 °F 29.83 in North 4.2 mph 6 mph 99% 0.09 in 3 W/m2
06:54 46.4 °F 46.1 °F 29.84 in NNE 2.8 mph 6 mph 99% 0.07 in 6 W/m2
06:59 46.4 °F 46.1 °F 29.84 in North 3.3 mph 3 mph 99% 0.08 in 7 W/m2
07:04 46.4 °F 46.1 °F 29.84 in NNW 3.9 mph 4 mph 99% 0.08 in 8 W/m2
07:09 46.4 °F 46.1 °F 29.84 in NNW 2.7 mph 6 mph 99% 0.08 in 10 W/m2
07:14 46.4 °F 46.1 °F 29.83 in North 1 mph 2 mph 99% 0.08 in 14 W/m2
07:19 46.4 °F 46.1 °F 29.83 in NNW 1 mph 2 mph 99% 0.09 in 21 W/m2
07:24 46.4 °F 46.1 °F 29.83 in NW 1.6 mph 2 mph 99% 0.09 in 24 W/m2
07:29 46.4 °F 46.1 °F 29.84 in NW 3 mph 2.7 mph 99% 0.09 in 23 W/m2
07:34 46.4 °F 46.1 °F 29.84 in NW 4.1 mph 4 mph 99% 0.09 in 20 W/m2
07:39 46.4 °F 46.1 °F 29.84 in NW 2.7 mph 5 mph 99% 0.09 in 15 W/m2
07:44 46.5 °F 46.2 °F 29.84 in NNW 2.5 mph 3 mph 99% 0.09 in 15 W/m2
07:49 46.5 °F 46.2 °F 29.83 in NNE 2 mph 3 mph 99% 0.03 in 15 W/m2
07:54 46.6 °F 46.3 °F 29.84 in NE 1.5 mph 2 mph 99% 0.02 in 18 W/m2
07:59 46.6 °F 46.3 °F 29.84 in NNW 1.2 mph 2 mph 99% 0.02 in 22 W/m2
08:04 46.6 °F 46.3 °F 29.84 in WNW 2.9 mph 2.5 mph 99% 0.02 in 23 W/m2
08:09 46.6 °F 46.3 °F 29.84 in WNW 4.4 mph 5 mph 99% 0.02 in 24 W/m2
08:14 46.6 °F 46.3 °F 29.85 in NW 3.6 mph 5 mph 99% 0.02 in 23 W/m2
08:19 46.6 °F 46.3 °F 29.85 in NNW 3.3 mph 4 mph 99% 0.03 in 22 W/m2
08:24 46.6 °F 46.3 °F 29.84 in North 4.8 mph 5.1 mph 99% 0.02 in 29 W/m2
08:29 46.8 °F 46.5 °F 29.83 in NNE 6.1 mph 6 mph 99% 0.03 in 44 W/m2
08:34 46.8 °F 46.5 °F 29.83 in NNE 5.7 mph 7 mph 99% 0.03 in 57 W/m2
08:39 46.8 °F 46.5 °F 29.83 in NW 6.4 mph 7 mph 99% 0.03 in 57 W/m2
08:44 46.9 °F 46.6 °F 29.83 in WNW 4.7 mph 7 mph 99% 0.03 in 46 W/m2
08:49 46.9 °F 46.7 °F 29.83 in NW 3.2 mph 6 mph 99% 0.03 in 45 W/m2
08:54 46.9 °F 46.7 °F 29.84 in North 3 mph 4 mph 99% 0.03 in 38 W/m2
08:59 47 °F 46.8 °F 29.84 in North 2.4 mph 3 mph 99% 0.03 in 36 W/m2
09:04 47.1 °F 46.9 °F 29.85 in North 2.1 mph 3 mph 99% 0.03 in 50 W/m2
09:09 47.1 °F 46.9 °F 29.85 in NNE 1.8 mph 2.2 mph 99% 0.03 in 51 W/m2
09:14 47.2 °F 47 °F 29.85 in NNE 3.5 mph 3.1 mph 99% 0.03 in 54 W/m2
09:19 47.3 °F 47 °F 29.85 in NNE 4.6 mph 5 mph 99% 0.03 in 48 W/m2
09:24 47.5 °F 47.2 °F 29.85 in NNE 5.3 mph 5 mph 99% 0.02 in 44 W/m2
09:29 47.5 °F 47.2 °F 29.85 in NNE 6.5 mph 6 mph 99% 0.01 in 52 W/m2
09:34 47.5 °F 47.2 °F 29.85 in NNE 5.7 mph 7 mph 99% 0.01 in 42 W/m2
09:39 47.5 °F 47.2 °F 29.85 in NNE 5.1 mph 6 mph 99% 0.01 in 30 W/m2
09:44 47.5 °F 47.2 °F 29.85 in NNE 4.6 mph 6 mph 99% 0.01 in 33 W/m2
09:49 47.6 °F 47.3 °F 29.85 in NNE 4.5 mph 6 mph 99% 0.01 in 35 W/m2
09:54 47.7 °F 47.4 °F 29.85 in NNE 4.5 mph 5 mph 99% 0.01 in 35 W/m2
09:59 47.7 °F 47.4 °F 29.85 in NNE 5.3 mph 5 mph 99% 0.01 in 40 W/m2
10:04 47.7 °F 47.4 °F 29.86 in NNE 4.6 mph 6 mph 99% 0.02 in 40 W/m2
10:09 47.7 °F 47.4 °F 29.86 in NE 4.5 mph 5 mph 99% 0.02 in 29 W/m2
10:14 47.7 °F 47.4 °F 29.87 in NE 4.5 mph 5 mph 99% 0.02 in 28 W/m2
10:19 47.7 °F 47.4 °F 29.87 in NNE 3.2 mph 5 mph 99% 0.03 in 24 W/m2
10:24 47.7 °F 47.4 °F 29.86 in NNE 5.2 mph 5 mph 99% 0.04 in 35 W/m2
10:29 47.8 °F 47.5 °F 29.87 in NNE 4.5 mph 6 mph 99% 0.06 in 32 W/m2
10:34 47.8 °F 47.6 °F 29.86 in NNE 6.7 mph 7 mph 99% 0.09 in 32 W/m2
10:39 47.7 °F 47.4 °F 29.87 in NNE 3.5 mph 8 mph 99% 0.11 in 29 W/m2
10:44 47.7 °F 47.4 °F 29.87 in North 5.1 mph 5 mph 99% 0.14 in 29 W/m2
10:49 47.7 °F 47.4 °F 29.87 in NNW 4.1 mph 6 mph 99% 0.16 in 30 W/m2
10:54 47.7 °F 47.4 °F 29.87 in NNE 6.2 mph 5.1 mph 99% 0.18 in 43 W/m2
10:59 47.7 °F 47.4 °F 29.86 in NE 5.1 mph 8 mph 99% 0.19 in 45 W/m2
11:04 47.7 °F 47.4 °F 29.86 in NE 6.2 mph 6 mph 99% 0.19 in 46 W/m2
11:09 47.7 °F 47.4 °F 29.86 in NE 6.5 mph 8 mph 99% 0.19 in 43 W/m2
11:14 47.7 °F 47.4 °F 29.86 in NE 6.2 mph 8 mph 99% 0.19 in 46 W/m2
11:19 47.7 °F 47.4 °F 29.86 in NE 5.4 mph 8 mph 99% 0.19 in 49 W/m2
11:24 47.7 °F 47.4 °F 29.86 in NE 6.4 mph 7 mph 99% 0.19 in 50 W/m2
11:29 47.7 °F 47.4 °F 29.86 in NE 3.6 mph 8 mph 99% 0.19 in 38 W/m2
11:34 47.7 °F 47.3 °F 29.86 in NNE 4.8 mph 6 mph 99% 0.23 in 44 W/m2
11:39 47.6 °F 47.3 °F 29.86 in NNE 4.7 mph 6 mph 99% 0.22 in 84 W/m2
11:44 47.7 °F 47.4 °F 29.86 in NNE 5.6 mph 7 mph 99% 0.20 in 87 W/m2
11:49 47.7 °F 47.4 °F 29.86 in NNE 2.7 mph 8 mph 99% 0.18 in 61 W/m2
11:54 47.7 °F 47.4 °F 29.86 in NNE 3.2 mph 4 mph 99% 0.16 in 41 W/m2
11:59 47.7 °F 47.4 °F 29.86 in NNE 3.7 mph 4 mph 99% 0.16 in 35 W/m2
12:04 47.7 °F 47.5 °F 29.85 in NNE 4.4 mph 6 mph 99% 0.17 in 32 W/m2
12:09 47.8 °F 47.6 °F 29.85 in NE 4.8 mph 7 mph 99% 0.18 in 29 W/m2
12:14 47.7 °F 47.4 °F 29.85 in NNE 4.4 mph 7 mph 99% 0.18 in 30 W/m2
12:19 47.7 °F 47.4 °F 29.85 in North 4 mph 5 mph 99% 0.19 in 25 W/m2
12:24 47.7 °F 47.4 °F 29.85 in North 2.4 mph 5 mph 99% 0.19 in 29 W/m2
12:29 47.7 °F 47.4 °F 29.85 in NNE 1.3 mph 4 mph 99% 0.19 in 32 W/m2
12:34 47.8 °F 47.6 °F 29.85 in NNE 1.5 mph 2 mph 99% 0.20 in 43 W/m2
12:39 47.8 °F 47.6 °F 29.85 in NE 1.7 mph 2 mph 99% 0.12 in 82 W/m2
12:44 47.8 °F 47.6 °F 29.84 in ESE 2.2 mph 2 mph 99% 0.13 in 85 W/m2
12:49 48 °F 47.8 °F 29.85 in SSE 2.4 mph 2 mph 99% 0.13 in 71 W/m2
12:54 48 °F 47.8 °F 29.85 in SE 3 mph 3 mph 99% 0.13 in 69 W/m2
12:59 48.2 °F 47.9 °F 29.85 in ESE 3.3 mph 3 mph 99% 0.12 in 53 W/m2
13:04 48 °F 47.8 °F 29.85 in ESE 4.8 mph 5 mph 99% 0.11 in 45 W/m2
13:09 48 °F 47.8 °F 29.84 in SE 2.2 mph 6 mph 99% 0.10 in 39 W/m2
13:14 48 °F 47.8 °F 29.84 in SSE 3.7 mph 3.1 mph 99% 0.09 in 34 W/m2
13:19 48 °F 47.8 °F 29.84 in SSE 3.4 mph 5 mph 99% 0.10 in 34 W/m2
13:24 48 °F 47.8 °F 29.84 in ESE 3 mph 5 mph 99% 0.10 in 34 W/m2
13:29 48 °F 47.8 °F 29.84 in East 2.3 mph 4 mph 99% 0.10 in 35 W/m2
13:34 48 °F 47.8 °F 29.83 in NE 3.3 mph 2.7 mph 99% 0.11 in 32 W/m2
13:39 48 °F 47.8 °F 29.83 in NW 5.2 mph 5 mph 99% 0.11 in 35 W/m2
13:44 48.1 °F 47.8 °F 29.83 in NNW 4.6 mph 7 mph 99% 0.11 in 34 W/m2
13:49 48.3 °F 48 °F 29.83 in NNW 2.5 mph 7 mph 99% 0.11 in 33 W/m2
13:54 48.4 °F 48.1 °F 29.83 in NNW 3.5 mph 3 mph 99% 0.11 in 32 W/m2
13:59 48.6 °F 48.3 °F 29.83 in WNW 6.2 mph 6 mph 99% 0.12 in 32 W/m2
14:04 48.6 °F 48.3 °F 29.83 in WNW 4.2 mph 7 mph 99% 0.12 in 28 W/m2
14:09 48.6 °F 48.3 °F 29.83 in WNW 3.8 mph 6 mph 99% 0.12 in 29 W/m2
14:14 48.6 °F 48.3 °F 29.83 in West 2.9 mph 5 mph 99% 0.12 in 32 W/m2
14:19 48.6 °F 48.3 °F 29.83 in WSW 2.6 mph 3 mph 99% 0.11 in 36 W/m2
14:24 48.6 °F 48.4 °F 29.83 in SW 4.2 mph 4 mph 99% 0.10 in 35 W/m2
14:29 48.7 °F 48.5 °F 29.83 in WSW 5.4 mph 6 mph 99% 0.09 in 27 W/m2
14:34 48.7 °F 48.5 °F 29.83 in West 2.7 mph 6 mph 99% 0.08 in 24 W/m2
14:39 48.7 °F 48.5 °F 29.83 in WNW 4.2 mph 4 mph 99% 0.08 in 23 W/m2
14:44 48.8 °F 48.6 °F 29.83 in West 3.8 mph 5 mph 99% 0.07 in 20 W/m2
14:49 48.9 °F 48.7 °F 29.83 in WSW 3.4 mph 5 mph 99% 0.07 in 20 W/m2
14:54 48.9 °F 48.7 °F 29.83 in WSW 2.5 mph 3 mph 99% 0.07 in 19 W/m2
14:59 48.9 °F 48.7 °F 29.83 in SW 3.4 mph 3 mph 99% 0.07 in 15 W/m2
15:04 48.9 °F 48.7 °F 29.83 in WSW 3.6 mph 3 mph 99% 0.06 in 13 W/m2
15:09 48.9 °F 48.7 °F 29.83 in WSW 3.3 mph 4 mph 99% 0.06 in 12 W/m2
15:14 48.9 °F 48.7 °F 29.83 in WSW 2.8 mph 3 mph 99% 0.06 in 11 W/m2
15:19 48.9 °F 48.7 °F 29.83 in West 3.1 mph 4 mph 99% 0.07 in 9 W/m2
15:24 48.9 °F 48.7 °F 29.82 in NW 3 mph 3 mph 99% 0.07 in 6 W/m2
15:29 49 °F 48.7 °F 29.82 in North 2.4 mph 3 mph 99% 0.07 in 4 W/m2
15:34 49.1 °F 48.8 °F 29.82 in NNE 3.6 mph 4.2 mph 99% 0.07 in 3 W/m2
15:39 49.3 °F 49 °F 29.81 in East 5.8 mph 7 mph 99% 0.07 in 2 W/m2
15:44 49.9 °F 49.6 °F 29.81 in ESE 6.9 mph 9 mph 99% 0.07 in 1 W/m2
15:49 50.4 °F 50.1 °F 29.80 in ESE 5.3 mph 8 mph 99% 0.07 in 1 W/m2
15:54 50.3 °F 50 °F 29.80 in ENE 4.2 mph 6 mph 99% 0.06 in 1 W/m2
15:59 50.2 °F 49.9 °F 29.80 in NW 4 mph 5 mph 99% 0.06 in 0 W/m2
16:04 50.5 °F 50.2 °F 29.79 in NNW 2.7 mph 5 mph 99% 0.06 in 0 W/m2
16:09 50.7 °F 50.4 °F 29.80 in North 3.4 mph 4.7 mph 99% 0.05 in 0 W/m2
16:14 50.7 °F 50.4 °F 29.81 in WNW 7.4 mph 7 mph 99% 0.05 in 0 W/m2
16:19 50.6 °F 50.4 °F 29.81 in WNW 6.9 mph 8 mph 99% 0.04 in 0 W/m2
16:24 50.5 °F 50.3 °F 29.81 in NW 5.8 mph 7 mph 99% 0.03 in 0 W/m2
16:29 50.7 °F 50.4 °F 29.81 in NW 4.9 mph 6 mph 99% 0.03 in 0 W/m2
16:34 50.8 °F 50.5 °F 29.81 in NW 6.6 mph 7 mph 99% 0.02 in 0 W/m2
16:39 50.9 °F 50.6 °F 29.80 in NNW 4 mph 7 mph 99% 0.01 in 0 W/m2
16:44 50.9 °F 50.6 °F 29.81 in NNE 2.9 mph 5 mph 99% 0.01 in 0 W/m2
16:49 50.8 °F 50.5 °F 29.80 in ENE 2.2 mph 3 mph 99% 0.00 in 0 W/m2
16:54 50.6 °F 50.3 °F 29.80 in NE 2.3 mph 3 mph 99% 0.00 in 0 W/m2
16:59 50.4 °F 50.2 °F 29.80 in NNE 2.2 mph 3 mph 99% 0.00 in 0 W/m2
17:04 50.4 °F 50.1 °F 29.80 in North 3.6 mph 4 mph 99% 0.00 in 0 W/m2
17:09 50.3 °F 50 °F 29.79 in NNE 3.3 mph 5 mph 99% 0.00 in 0 W/m2
17:14 50.2 °F 49.9 °F 29.80 in NE 2.5 mph 4 mph 99% 0.00 in 0 W/m2
17:19 50.2 °F 49.9 °F 29.80 in North 3.8 mph 4 mph 99% 0.00 in 0 W/m2
17:24 50.2 °F 49.9 °F 29.80 in NNW 2.9 mph 6 mph 99% 0.00 in 0 W/m2
17:29 50.4 °F 50.2 °F 29.80 in North 2.9 mph 4 mph 99% 0.00 in 0 W/m2
17:34 50.5 °F 50.3 °F 29.80 in NNE 3.6 mph 4 mph 99% 0.00 in 0 W/m2
17:39 50.5 °F 50.3 °F 29.81 in NE 5.7 mph 5 mph 99% 0.00 in 0 W/m2
17:44 50.4 °F 50.2 °F 29.81 in NE 9.7 mph 10 mph 99% 0.00 in 0 W/m2
17:49 50 °F 49.8 °F 29.81 in NNE 8.9 mph 11 mph 99% 0.00 in 0 W/m2
17:54 49.7 °F 49.5 °F 29.81 in NNE 10.5 mph 10.1 mph 99% 0.00 in 0 W/m2
17:59 49.4 °F 49.1 °F 29.81 in NNE 11.6 mph 13 mph 99% 0.00 in 0 W/m2
18:04 49.2 °F 48.9 °F 29.81 in NNE 11.2 mph 13 mph 99% 0.00 in 0 W/m2
18:09 49 °F 48.7 °F 29.80 in NNE 11.1 mph 12 mph 99% 0.00 in 0 W/m2
18:14 48.8 °F 48.7 °F 29.80 in NNE 12.1 mph 13 mph 99% 0.00 in 0 W/m2
18:19 48.7 °F 48.5 °F 29.80 in NNE 12 mph 13 mph 99% 0.00 in 0 W/m2
18:24 48.6 °F 48.4 °F 29.80 in NNE 11.1 mph 14 mph 99% 0.00 in 0 W/m2
18:29 48.6 °F 48.3 °F 29.79 in NNE 10.2 mph 14 mph 99% 0.00 in 0 W/m2
18:34 48.6 °F 48.3 °F 29.79 in NNE 9.6 mph 12 mph 99% 0.00 in 0 W/m2
18:39 48.6 °F 48.3 °F 29.79 in NNE 8.3 mph 12 mph 99% 0.00 in 0 W/m2
18:44 48.6 °F 48.3 °F 29.79 in NNE 8.7 mph 9 mph 99% 0.00 in 0 W/m2
18:49 48.4 °F 48.1 °F 29.78 in NNE 8.3 mph 10 mph 99% 0.00 in 0 W/m2
18:54 48.3 °F 48 °F 29.78 in NNE 7.2 mph 10 mph 99% 0.00 in 0 W/m2
18:59 48.2 °F 47.9 °F 29.78 in NNE 6.9 mph 8 mph 99% 0.00 in 0 W/m2
19:04 48.2 °F 47.9 °F 29.78 in North 5.6 mph 8 mph 99% 0.00 in 0 W/m2
19:09 48.4 °F 48.1 °F 29.78 in NW 5.3 mph 6 mph 99% 0.00 in 0 W/m2
19:14 48.4 °F 48.1 °F 29.78 in WNW 2.6 mph 6 mph 99% 0.01 in 0 W/m2
19:19 48.4 °F 48.1 °F 29.78 in NNW 1.6 mph 2 mph 99% 0.01 in 0 W/m2
19:24 48.4 °F 48.1 °F 29.78 in NE 2.9 mph 2.9 mph 99% 0.01 in 0 W/m2
19:29 48.4 °F 48.1 °F 29.78 in NE 4 mph 4 mph 99% 0.01 in 0 W/m2
19:34 48.4 °F 48.1 °F 29.78 in NNE 6.1 mph 6 mph 99% 0.01 in 0 W/m2
19:39 48.4 °F 48.1 °F 29.79 in NNE 5.7 mph 7 mph 99% 0.01 in 0 W/m2
19:44 48.3 °F 48 °F 29.79 in NNE 5.2 mph 7 mph 99% 0.01 in 0 W/m2
19:47 48.3 °F 48 °F 29.79 in NNE 5.1 mph 6 mph 99% 0.01 in 0 W/m2
19:55 48.2 °F 47.9 °F 29.79 in NE 3 mph 9 mph 99% 0.00 in 0 W/m2
20:04 48.1 °F 47.9 °F 29.79 in NE 6.1 mph 4 mph 99% 0.02 in 0 W/m2
20:09 48.1 °F 47.9 °F 29.80 in NE 6.7 mph 8 mph 99% 0.02 in 0 W/m2
20:14 48 °F 47.8 °F 29.80 in NNE 6.6 mph 8 mph 99% 0.02 in 0 W/m2
20:19 48 °F 47.8 °F 29.80 in NNE 7.5 mph 8 mph 99% 0.03 in 0 W/m2
20:24 48 °F 47.8 °F 29.80 in NNE 7.7 mph 8 mph 99% 0.04 in 0 W/m2
20:29 48 °F 47.8 °F 29.80 in NNE 7.5 mph 8 mph 99% 0.06 in 0 W/m2
20:34 48 °F 47.8 °F 29.81 in NNE 7 mph 8 mph 99% 0.07 in 0 W/m2
20:39 48 °F 47.8 °F 29.81 in NE 7.7 mph 8 mph 99% 0.09 in 0 W/m2
20:44 48 °F 47.8 °F 29.81 in NE 5.8 mph 8 mph 99% 0.09 in 0 W/m2
20:49 48 °F 47.8 °F 29.81 in NE 6.2 mph 7 mph 99% 0.10 in 0 W/m2
20:54 48 °F 47.8 °F 29.81 in NE 5.2 mph 7 mph 99% 0.10 in 0 W/m2
20:59 47.9 °F 47.7 °F 29.81 in NNE 5 mph 6 mph 99% 0.10 in 0 W/m2
21:04 47.8 °F 47.6 °F 29.81 in NNE 6.5 mph 6 mph 99% 0.10 in 0 W/m2
21:09 47.8 °F 47.6 °F 29.81 in NNE 5.4 mph 8 mph 99% 0.10 in 0 W/m2
21:14 47.8 °F 47.6 °F 29.81 in NNE 5.2 mph 6 mph 99% 0.10 in 0 W/m2
21:19 47.8 °F 47.6 °F 29.80 in NNE 3.7 mph 6 mph 99% 0.10 in 0 W/m2
21:24 47.8 °F 47.6 °F 29.81 in NNE 2.9 mph 5 mph 99% 0.10 in 0 W/m2
21:29 47.8 °F 47.5 °F 29.80 in NNE 2.7 mph 3 mph 99% 0.09 in 0 W/m2
21:34 47.7 °F 47.4 °F 29.80 in NNE 2.1 mph 4 mph 99% 0.08 in 0 W/m2
21:39 47.7 °F 47.4 °F 29.80 in NNE 2.1 mph 2 mph 99% 0.08 in 0 W/m2
21:44 47.7 °F 47.4 °F 29.80 in NNE 3.3 mph 2.5 mph 99% 0.07 in 0 W/m2
21:49 47.7 °F 47.4 °F 29.80 in NNE 2.8 mph 4 mph 99% 0.07 in 0 W/m2
21:54 47.7 °F 47.4 °F 29.79 in NNE 2.2 mph 3 mph 99% 0.06 in 0 W/m2
21:59 47.7 °F 47.4 °F 29.79 in NNE 2.1 mph 2 mph 99% 0.07 in 0 W/m2
22:04 47.7 °F 47.4 °F 29.79 in North 2.9 mph 2.9 mph 99% 0.07 in 0 W/m2
22:09 47.7 °F 47.4 °F 29.79 in WNW 3.6 mph 5 mph 99% 0.09 in 0 W/m2
22:14 47.5 °F 47.2 °F 29.79 in West 3.4 mph 4 mph 99% 0.09 in 0 W/m2
22:19 47.2 °F 47 °F 29.78 in WNW 3.7 mph 4 mph 99% 0.09 in 0 W/m2
22:24 46.9 °F 46.7 °F 29.78 in WNW 4.3 mph 5 mph 99% 0.08 in 0 W/m2
22:29 46.9 °F 46.6 °F 29.78 in West 3.8 mph 6 mph 99% 0.08 in 0 W/m2
22:34 46.8 °F 46.5 °F 29.78 in West 3 mph 5 mph 99% 0.07 in 0 W/m2
22:39 46.7 °F 46.4 °F 29.78 in WNW 2.8 mph 4 mph 99% 0.07 in 0 W/m2
22:44 46.6 °F 46.3 °F 29.77 in NW 2.2 mph 3 mph 99% 0.06 in 0 W/m2
22:49 46.6 °F 46.3 °F 29.77 in North 2.2 mph 3 mph 99% 0.05 in 0 W/m2
22:54 46.5 °F 46.2 °F 29.77 in North 2.4 mph 3 mph 99% 0.05 in 0 W/m2
22:59 46.4 °F 46.1 °F 29.77 in North 0.9 mph 3 mph 99% 0.04 in 0 W/m2
23:04 46.4 °F 46.1 °F 29.77 in North 0.5 mph 2 mph 99% 0.04 in 0 W/m2
23:09 46.4 °F 46.1 °F 29.76 in WSW 1.3 mph 1.6 mph 99% 0.04 in 0 W/m2
23:14 46.4 °F 46.1 °F 29.76 in WNW 2.1 mph 3 mph 99% 0.03 in 0 W/m2
23:19 46.3 °F 46 °F 29.76 in WNW 2.5 mph 2 mph 99% 0.02 in 0 W/m2
23:24 46.2 °F 46 °F 29.76 in SW 3.7 mph 3 mph 99% 0.03 in 0 W/m2
23:29 46.2 °F 46 °F 29.76 in WSW 4.2 mph 5 mph 99% 0.05 in 0 W/m2
23:34 46.1 °F 45.9 °F 29.75 in WNW 4.7 mph 5 mph 99% 0.06 in 0 W/m2
23:39 46 °F 45.8 °F 29.75 in WNW 4.3 mph 6 mph 99% 0.07 in 0 W/m2
23:44 45.9 °F 45.6 °F 29.75 in WNW 4.2 mph 5 mph 99% 0.08 in 0 W/m2
23:49 45.8 °F 45.5 °F 29.75 in WNW 4.4 mph 5 mph 99% 0.08 in 0 W/m2
23:54 45.7 °F 45.4 °F 29.74 in West 4.8 mph 5 mph 99% 0.09 in 0 W/m2
23:59 45.7 °F 45.4 °F 29.74 in West 5.5 mph 6 mph 99% 0.09 in 0 W/m2
Knjazevac, Serbia
Compliments of Weather Underground - 4 mb